Time;durP1;ratioP1;P1;durP2;ratioP2;P2;SDS_P1;SDS_P2;PMS_P1;PMS_P2;Temp;Humidity;BMP_temperature;BMP_pressure;BME280_temperature;BME280_humidity;BME280_pressure;Samples;Min_cycle;Max_cycle;Signal;HPM_P1;HPM_P2
2023/04/25 00:01:46;;;;;;;14.40;3.95;;;10.30;97.60;;;;;;5073106;28;20028;-67
2023/04/25 00:04:12;;;;;;;15.50;3.58;;;10.30;97.50;;;;;;5073079;28;20474;-68
2023/04/25 00:06:37;;;;;;;10.75;3.55;;;10.40;97.50;;;;;;5072530;28;20029;-66
2023/04/25 00:09:07;;;;;;;7.68;3.05;;;10.30;97.50;;;;;;5072483;28;20086;-67
2023/04/25 00:11:33;;;;;;;12.80;3.65;;;10.10;97.80;;;;;;5072322;28;20489;-67
2023/04/25 00:13:59;;;;;;;11.40;3.80;;;10.10;97.90;;;;;;5072585;28;20025;-66
2023/04/25 00:16:26;;;;;;;13.73;4.18;;;10.20;97.80;;;;;;5071661;28;20103;-68
2023/04/25 00:18:53;;;;;;;16.37;4.40;;;9.90;98.40;;;;;;5072284;28;20032;-67
2023/04/25 00:21:20;;;;;;;12.55;4.45;;;9.90;98.60;;;;;;5072122;28;20250;-66
2023/04/25 00:23:46;;;;;;;12.10;3.42;;;10.10;98.20;;;;;;5071822;28;20126;-67
2023/04/25 00:26:12;;;;;;;16.33;4.18;;;10.10;97.80;;;;;;5071851;28;20074;-67
2023/04/25 00:28:39;;;;;;;12.80;4.13;;;10.00;98.00;;;;;;5071390;28;20021;-67
2023/04/25 00:31:05;;;;;;;13.43;4.60;;;10.00;98.00;;;;;;5072084;28;20497;-67
2023/04/25 00:33:31;;;;;;;14.57;4.28;;;10.10;97.70;;;;;;5071592;28;20040;-67
2023/04/25 00:35:57;;;;;;;10.63;3.60;;;10.20;97.70;;;;;;5071636;28;20299;-66
2023/04/25 00:38:22;;;;;;;14.82;4.32;;;10.20;97.70;;;;;;5071570;28;20039;-68
2023/04/25 00:40:48;;;;;;;14.63;3.75;;;10.20;97.50;;;;;;5071659;28;20032;-67
2023/04/25 00:43:14;;;;;;;15.90;4.53;;;10.10;97.70;;;;;;5071236;28;20111;-67
2023/04/25 00:45:40;;;;;;;13.70;3.60;;;10.20;97.60;;;;;;5071538;28;20062;-68
2023/04/25 00:48:06;;;;;;;17.42;3.97;;;10.10;97.60;;;;;;5071521;28;20040;-67
2023/04/25 00:50:33;;;;;;;14.70;3.78;;;10.10;97.80;;;;;;5071412;28;20025;-67
2023/04/25 00:53:00;;;;;;;16.40;3.78;;;10.10;97.70;;;;;;5071416;28;20028;-67
2023/04/25 00:55:26;;;;;;;12.15;3.25;;;10.00;97.80;;;;;;5071719;28;20016;-66
2023/04/25 00:57:52;;;;;;;13.73;4.63;;;10.10;97.60;;;;;;5071406;28;20447;-66
2023/04/25 01:00:18;;;;;;;14.57;3.80;;;10.00;97.80;;;;;;5071329;28;20032;-67
2023/04/25 01:02:45;;;;;;;13.70;4.10;;;10.10;97.80;;;;;;5071269;28;20035;-67
2023/04/25 01:05:11;;;;;;;16.70;4.18;;;10.00;97.80;;;;;;5071411;28;20075;-67
2023/04/25 01:07:38;;;;;;;10.43;3.90;;;9.90;98.80;;;;;;5071531;28;20186;-67
2023/04/25 01:10:04;;;;;;;12.18;4.10;;;10.10;97.70;;;;;;5071192;28;20032;-67
2023/04/25 01:12:30;;;;;;;13.68;4.47;;;10.10;97.70;;;;;;5071186;28;20474;-67
2023/04/25 01:14:56;;;;;;;14.75;4.05;;;10.00;97.90;;;;;;5071025;28;20037;-66
2023/04/25 01:17:22;;;;;;;17.92;4.53;;;9.90;98.50;;;;;;5070149;28;20041;-66
2023/04/25 01:19:48;;;;;;;15.65;4.70;;;10.00;98.10;;;;;;5069921;28;20039;-66
2023/04/25 01:22:15;;;;;;;9.10;3.85;;;10.00;98.00;;;;;;5071342;28;20372;-66
2023/04/25 01:24:41;;;;;;;14.60;4.55;;;10.00;97.90;;;;;;5070981;28;20064;-67
2023/04/25 01:27:07;;;;;;;12.70;4.25;;;10.10;97.80;;;;;;5070030;28;20451;-68
2023/04/25 01:29:34;;;;;;;14.75;4.05;;;10.00;98.00;;;;;;5071015;28;20181;-68
2023/04/25 01:32:00;;;;;;;22.17;4.95;;;10.00;98.00;;;;;;5070697;28;20383;-67
2023/04/25 01:34:26;;;;;;;11.25;4.18;;;9.90;98.60;;;;;;5070185;28;20017;-67
2023/04/25 01:36:53;;;;;;;12.95;4.18;;;9.90;98.70;;;;;;5069513;28;20025;-68
2023/04/25 01:39:20;;;;;;;9.50;3.88;;;10.00;98.30;;;;;;5070749;28;20032;-67
2023/04/25 01:41:47;;;;;;;12.15;4.60;;;10.00;98.30;;;;;;5069414;28;20044;-67
2023/04/25 01:44:13;;;;;;;15.65;4.70;;;9.80;99.00;;;;;;5070568;28;20409;-67
2023/04/25 01:46:39;;;;;;;16.23;4.45;;;9.80;99.00;;;;;;5071003;28;20048;-67
2023/04/25 01:49:05;;;;;;;17.13;5.30;;;9.70;99.20;;;;;;5070667;28;20060;-68
2023/04/25 01:51:31;;;;;;;15.73;4.38;;;9.80;99.30;;;;;;5070595;28;20046;-67
2023/04/25 01:53:57;;;;;;;13.18;4.40;;;9.90;99.00;;;;;;5073189;28;20036;-68
2023/04/25 01:56:23;;;;;;;9.43;4.72;;;10.10;98.30;;;;;;5074822;28;20032;-67
2023/04/25 01:58:49;;;;;;;21.15;4.97;;;9.70;99.40;;;;;;5075006;28;20082;-67
2023/04/25 02:01:14;;;;;;;18.15;4.63;;;9.70;99.50;;;;;;5074758;28;20445;-68
2023/04/25 02:03:40;;;;;;;18.55;5.00;;;9.70;99.80;;;;;;5074498;28;20044;-67
2023/04/25 02:06:06;;;;;;;11.70;4.22;;;9.50;99.90;;;;;;5074467;28;20028;-67
2023/04/25 02:08:32;;;;;;;12.18;4.55;;;9.60;99.90;;;;;;5074328;28;20067;-68
2023/04/25 02:10:57;;;;;;;13.70;4.97;;;9.70;99.90;;;;;;5073073;28;20028;-67
2023/04/25 02:13:23;;;;;;;16.52;4.70;;;9.80;99.90;;;;;;5074589;28;20458;-66
2023/04/25 02:15:49;;;;;;;19.13;5.13;;;9.70;99.90;;;;;;5074378;28;20367;-68
2023/04/25 02:18:16;;;;;;;15.90;4.88;;;9.70;99.90;;;;;;5074264;28;20370;-69
2023/04/25 02:20:42;;;;;;;18.30;4.95;;;9.80;99.90;;;;;;5074121;28;20063;-69
2023/04/25 02:23:08;;;;;;;15.48;5.10;;;9.40;99.90;;;;;;5074109;28;20036;-67
2023/04/25 02:25:33;;;;;;;14.05;5.57;;;9.40;99.90;;;;;;5074418;28;20077;-66
2023/04/25 02:27:59;;;;;;;13.10;5.13;;;9.50;99.90;;;;;;5074277;28;20041;-67
2023/04/25 02:30:25;;;;;;;12.52;4.18;;;9.40;99.90;;;;;;5073952;28;20059;-67
2023/04/25 02:32:51;;;;;;;10.52;3.88;;;9.30;99.90;;;;;;5073713;28;20064;-67
2023/04/25 02:35:16;;;;;;;18.00;4.20;;;9.10;99.90;;;;;;5074077;28;20033;-67
2023/04/25 02:37:42;;;;;;;12.82;3.67;;;9.30;99.90;;;;;;5074382;28;20020;-67
2023/04/25 02:40:09;;;;;;;12.15;3.25;;;9.30;99.90;;;;;;5073879;28;20029;-67
2023/04/25 02:42:35;;;;;;;12.10;3.60;;;9.10;99.90;;;;;;5073704;28;20039;-67
2023/04/25 02:45:02;;;;;;;12.95;3.38;;;9.10;99.90;;;;;;5073967;28;20032;-67
2023/04/25 02:47:27;;;;;;;15.65;3.30;;;9.20;99.90;;;;;;5074022;28;20035;-67
2023/04/25 02:49:53;;;;;;;16.42;4.10;;;9.30;99.90;;;;;;5073793;28;20028;-66
2023/04/25 02:52:19;;;;;;;18.45;3.47;;;9.20;99.90;;;;;;5074127;28;20017;-68
2023/04/25 02:54:44;;;;;;;15.20;2.80;;;9.40;99.90;;;;;;5073615;28;20462;-67
2023/04/25 02:57:10;;;;;;;25.88;4.53;;;9.50;99.80;;;;;;5073559;28;20036;-66
2023/04/25 02:59:35;;;;;;;17.65;2.97;;;9.10;99.90;;;;;;5073632;28;20108;-67
2023/04/25 03:02:01;;;;;;;14.95;3.35;;;9.20;99.80;;;;;;5073654;28;20128;-66
2023/04/25 03:04:27;;;;;;;16.90;3.85;;;9.20;99.90;;;;;;5073128;28;20023;-68
2023/04/25 03:06:53;;;;;;;16.30;3.60;;;9.30;99.90;;;;;;5073462;28;20029;-67
2023/04/25 03:09:19;;;;;;;17.95;3.55;;;9.50;99.80;;;;;;5073377;28;20060;-67
2023/04/25 03:11:45;;;;;;;18.63;3.53;;;9.30;99.90;;;;;;5073308;28;20036;-67
2023/04/25 03:14:11;;;;;;;18.40;3.03;;;9.30;99.90;;;;;;5073463;28;20103;-67
2023/04/25 03:16:37;;;;;;;23.50;3.60;;;9.50;99.60;;;;;;5073840;28;20086;-67
2023/04/25 03:19:03;;;;;;;21.98;3.55;;;9.50;99.80;;;;;;5073320;28;20032;-67
2023/04/25 03:21:33;;;;;;;27.27;3.85;;;9.50;99.70;;;;;;5073157;28;20527;-68
2023/04/25 03:24:00;;;;;;;14.23;3.58;;;9.50;99.70;;;;;;5072118;28;20047;-67
2023/04/25 03:26:25;;;;;;;24.55;4.38;;;9.50;99.90;;;;;;5073012;28;20032;-67
2023/04/25 03:28:51;;;;;;;23.00;3.58;;;9.30;99.90;;;;;;5073053;28;20349;-69
2023/04/25 03:31:17;;;;;;;21.75;3.67;;;9.30;99.90;;;;;;5089120;28;20063;-66
2023/04/25 03:33:42;;;;;;;22.83;4.43;;;9.30;99.90;;;;;;5072746;28;20102;-67
2023/04/25 03:36:08;;;;;;;19.73;4.57;;;9.60;99.90;;;;;;5073114;28;20116;-67
2023/04/25 03:38:34;;;;;;;20.77;3.83;;;9.70;99.70;;;;;;5072894;28;20028;-67
2023/04/25 03:41:01;;;;;;;19.90;3.65;;;9.60;99.90;;;;;;5088956;28;20454;-66
2023/04/25 03:43:28;;;;;;;18.23;3.22;;;9.50;99.90;;;;;;5073318;28;20071;-68
2023/04/25 03:45:53;;;;;;;14.02;2.92;;;9.60;99.90;;;;;;5072753;28;20040;-66
2023/04/25 03:48:21;;;;;;;17.35;4.72;;;9.60;99.90;;;;;;5072729;28;20025;-67
2023/04/25 03:50:47;;;;;;;21.55;3.35;;;9.60;99.90;;;;;;5072889;28;20035;-68
2023/04/25 03:53:13;;;;;;;31.67;4.75;;;9.60;99.80;;;;;;5088282;28;20068;-67
2023/04/25 03:55:38;;;;;;;19.23;3.53;;;9.40;99.90;;;;;;5071816;28;20060;-66
2023/04/25 03:58:04;;;;;;;19.70;4.45;;;9.50;99.90;;;;;;5072370;28;20047;-67
2023/04/25 04:00:30;;;;;;;26.35;4.55;;;9.50;99.90;;;;;;5088322;28;20037;-67
2023/04/25 04:02:56;;;;;;;25.00;3.72;;;9.60;99.80;;;;;;5072323;28;20339;-66
2023/04/25 04:05:22;;;;;;;26.40;4.15;;;9.70;99.50;;;;;;5088230;28;20028;-67
2023/04/25 04:07:47;;;;;;;23.20;4.05;;;9.50;99.20;;;;;;5072839;28;20031;-67
2023/04/25 04:10:13;;;;;;;22.10;3.25;;;9.30;99.00;;;;;;5071177;28;20111;-68
2023/04/25 04:12:39;;;;;;;22.88;4.03;;;9.40;98.90;;;;;;5072151;28;20179;-66
2023/04/25 04:15:06;;;;;;;24.42;4.07;;;9.50;98.60;;;;;;5087797;28;20056;-67
2023/04/25 04:17:32;;;;;;;18.85;3.75;;;9.50;98.40;;;;;;5072185;28;20028;-67
2023/04/25 04:19:58;;;;;;;24.95;3.42;;;9.50;98.40;;;;;;5071016;28;20131;-67
2023/04/25 04:22:24;;;;;;;18.60;3.90;;;9.60;98.30;;;;;;5071355;28;20474;-65
2023/04/25 04:24:50;;;;;;;28.23;5.22;;;9.40;98.50;;;;;;5071680;28;20028;-67
2023/04/25 04:27:19;;;;;;;28.20;3.67;;;9.60;98.30;;;;;;5071716;28;20029;-66
2023/04/25 04:29:45;;;;;;;21.85;4.20;;;9.60;98.30;;;;;;5071831;28;20028;-66
2023/04/25 04:32:12;;;;;;;24.35;3.47;;;9.60;98.10;;;;;;5071409;28;20045;-66
2023/04/25 04:34:39;;;;;;;36.05;5.47;;;9.60;97.40;;;;;;5071895;28;20039;-67
2023/04/25 04:37:06;;;;;;;29.45;3.88;;;9.40;97.50;;;;;;5071520;28;20071;-67
2023/04/25 04:39:33;;;;;;;22.08;3.00;;;9.50;97.50;;;;;;5070430;28;20029;-68
2023/04/25 04:42:01;;;;;;;23.95;3.83;;;9.50;97.60;;;;;;5071327;28;20028;-67
2023/04/25 04:44:26;;;;;;;;;;;9.30;97.30;;;;;;5072042;28;20412;-68
2023/04/25 04:46:52;;;;;;;19.55;4.05;;;9.40;97.40;;;;;;5071706;28;19985;-66
2023/04/25 04:49:18;;;;;;;28.67;3.83;;;9.50;97.20;;;;;;5071688;28;20100;-68
2023/04/25 04:51:46;;;;;;;18.63;4.40;;;9.40;97.50;;;;;;5071288;28;20047;-67
2023/04/25 04:54:13;;;;;;;25.23;3.90;;;9.30;97.60;;;;;;5087128;28;20130;-66
2023/04/25 04:56:38;;;;;;;26.98;4.28;;;9.50;97.40;;;;;;5071513;28;20040;-67
2023/04/25 04:59:04;;;;;;;19.45;3.70;;;9.40;96.90;;;;;;5071130;28;20105;-66
2023/04/25 05:01:30;;;;;;;22.30;3.08;;;9.30;97.20;;;;;;5071858;28;20028;-66
2023/04/25 05:04:00;;;;;;;28.60;4.25;;;9.50;96.70;;;;;;5071178;28;20482;-69
2023/04/25 05:06:26;;;;;;;23.55;3.97;;;9.50;96.50;;;;;;5071612;28;20039;-67
2023/04/25 05:08:52;;;;;;;29.75;4.00;;;9.40;96.70;;;;;;5071074;28;20071;-68
2023/04/25 05:11:19;;;;;;;39.00;4.18;;;9.40;96.70;;;;;;5071103;28;20048;-67
2023/04/25 05:13:45;;;;;;;33.33;4.57;;;9.20;96.60;;;;;;5071346;28;20040;-67
2023/04/25 05:16:11;;;;;;;20.95;3.65;;;9.30;96.80;;;;;;5070953;28;20466;-66
2023/04/25 05:18:38;;;;;;;28.23;4.03;;;9.50;96.60;;;;;;5069489;28;20504;-67
2023/04/25 05:21:04;;;;;;;22.13;3.80;;;9.60;96.20;;;;;;5070896;28;20131;-66
2023/04/25 05:23:31;;;;;;;24.67;3.92;;;9.40;96.30;;;;;;5070310;28;20127;-67
2023/04/25 05:25:56;;;;;;;29.42;5.07;;;9.60;96.20;;;;;;5070545;28;20017;-67
2023/04/25 05:28:22;;;;;;;22.40;4.57;;;9.70;96.20;;;;;;5070825;28;20101;-68
2023/04/25 05:30:48;;;;;;;20.65;3.53;;;9.50;96.10;;;;;;5070659;28;20036;-68
2023/04/25 05:33:14;;;;;;;27.00;3.47;;;9.60;96.10;;;;;;5070512;28;20098;-68
2023/04/25 05:35:40;;;;;;;24.88;3.58;;;9.40;95.80;;;;;;5070932;28;20067;-66
2023/04/25 05:38:05;;;;;;;19.10;3.38;;;9.40;95.80;;;;;;5070649;28;20056;-69
2023/04/25 05:40:31;;;;;;;21.60;4.28;;;9.50;95.70;;;;;;5070936;28;20024;-65
2023/04/25 05:42:56;;;;;;;22.90;2.85;;;9.50;95.70;;;;;;5070573;28;20111;-68
2023/04/25 05:45:22;;;;;;;25.52;3.88;;;9.70;95.50;;;;;;5086418;28;20087;-68
2023/04/25 05:47:48;;;;;;;30.50;4.00;;;9.70;95.30;;;;;;5070323;28;20366;-68
2023/04/25 05:50:14;;;;;;;27.95;4.40;;;9.70;95.50;;;;;;5071628;28;20029;-68
2023/04/25 05:52:39;;;;;;;22.17;3.47;;;9.70;94.90;;;;;;5071283;28;20024;-68
2023/04/25 05:55:06;;;;;;;21.75;3.15;;;9.80;94.70;;;;;;5070446;28;20036;-68
2023/04/25 05:57:31;;;;;;;20.90;4.05;;;9.90;94.60;;;;;;5086304;28;20028;-68
2023/04/25 05:59:57;;;;;;;27.25;3.65;;;9.80;94.50;;;;;;5070202;28;20082;-68
2023/04/25 06:02:23;;;;;;;21.60;3.35;;;9.90;94.60;;;;;;5070737;28;20402;-67
2023/04/25 06:04:50;;;;;;;18.70;3.42;;;10.10;94.10;;;;;;5070795;28;20035;-68
2023/04/25 06:07:16;;;;;;;24.60;3.67;;;10.20;93.80;;;;;;5070364;28;20528;-68
2023/04/25 06:09:43;;;;;;;25.08;3.88;;;10.10;93.70;;;;;;5070355;28;20446;-68
2023/04/25 06:12:08;;;;;;;22.63;3.97;;;10.20;93.60;;;;;;5070089;28;20367;-68
2023/04/25 06:14:34;;;;;;;31.60;3.95;;;10.10;93.70;;;;;;5070570;28;20082;-67
2023/04/25 06:17:06;;;;;;;19.73;3.42;;;10.00;93.70;;;;;;5070614;28;20607;-68
2023/04/25 06:19:32;;;;;;;23.08;3.65;;;10.00;93.60;;;;;;5070766;28;20021;-67
2023/04/25 06:21:58;;;;;;;14.50;2.58;;;9.90;94.10;;;;;;5070280;28;20646;-69
2023/04/25 06:24:24;;;;;;;26.35;3.55;;;10.10;93.90;;;;;;5070733;28;20533;-70
2023/04/25 06:26:50;;;;;;;28.15;4.15;;;10.20;93.70;;;;;;5070073;28;20036;-69
2023/04/25 06:29:15;;;;;;;22.15;3.00;;;10.20;93.20;;;;;;5070548;28;20110;-68
2023/04/25 06:31:41;;;;;;;22.40;3.88;;;10.20;93.10;;;;;;5070467;28;20473;-70
2023/04/25 06:34:06;;;;;;;22.10;3.35;;;10.20;93.30;;;;;;5070387;28;20085;-69
2023/04/25 06:36:32;;;;;;;26.80;4.63;;;10.20;93.10;;;;;;5070763;28;20028;-69
2023/04/25 06:38:58;;;;;;;22.55;3.38;;;10.30;93.20;;;;;;5071061;28;20476;-71
2023/04/25 06:41:23;;;;;;;20.63;3.30;;;10.30;93.00;;;;;;5073720;28;20398;-69
2023/04/25 06:43:49;;;;;;;17.15;3.22;;;10.30;93.30;;;;;;5090349;28;20443;-70
2023/04/25 06:46:15;;;;;;;18.80;2.83;;;10.50;92.90;;;;;;5074126;28;20617;-68
2023/04/25 06:48:41;;;;;;;19.27;3.80;;;10.60;92.50;;;;;;5074357;28;20033;-67
2023/04/25 06:51:06;;;;;;;18.70;3.08;;;10.60;92.40;;;;;;5074393;28;20029;-68
2023/04/25 06:53:32;;;;;;;18.17;3.28;;;10.50;92.20;;;;;;5073742;28;20506;-69
2023/04/25 06:55:57;;;;;;;20.90;3.30;;;10.60;92.30;;;;;;5089338;28;20446;-70
2023/04/25 06:58:23;;;;;;;15.60;3.33;;;10.90;92.10;;;;;;5073788;28;20043;-69
2023/04/25 07:00:49;;;;;;;20.10;3.45;;;11.10;91.90;;;;;;5073566;28;20060;-68
2023/04/25 07:03:15;;;;;;;15.25;3.15;;;11.10;91.80;;;;;;5072368;28;20082;-69
2023/04/25 07:05:45;;;;;;;27.42;4.15;;;11.20;90.90;;;;;;5073855;28;20033;-69
2023/04/25 07:08:11;;;;;;;16.10;3.05;;;11.20;91.30;;;;;;5074153;28;20039;-69
2023/04/25 07:10:37;;;;;;;19.17;3.53;;;11.40;90.90;;;;;;5074567;28;20024;-69
2023/04/25 07:13:02;;;;;;;24.10;3.83;;;11.20;90.90;;;;;;5073265;28;20056;-70
2023/04/25 07:15:28;;;;;;;12.23;2.72;;;11.30;91.00;;;;;;5073282;28;20037;-70
2023/04/25 07:17:54;;;;;;;23.25;3.03;;;11.20;90.60;;;;;;5089247;28;20163;-69
2023/04/25 07:20:19;;;;;;;19.33;2.92;;;10.90;90.40;;;;;;5073367;28;20029;-69
2023/04/25 07:22:45;;;;;;;22.45;3.30;;;10.80;90.80;;;;;;5073887;28;20033;-69
2023/04/25 07:25:11;;;;;;;21.08;2.58;;;10.80;90.70;;;;;;5074049;28;20135;-68
2023/04/25 07:27:36;;;;;;;19.92;3.08;;;10.60;91.10;;;;;;5090020;28;20473;-70
2023/04/25 07:30:03;;;;;;;17.67;3.40;;;10.50;91.20;;;;;;5074868;28;20029;-68
2023/04/25 07:32:30;;;;;;;14.50;2.55;;;10.40;91.10;;;;;;5073947;28;20052;-68
2023/04/25 07:34:55;;;;;;;12.90;2.40;;;10.50;91.10;;;;;;5073365;28;20020;-68
2023/04/25 07:37:21;;;;;;;18.33;2.63;;;10.30;90.70;;;;;;5073518;28;20477;-67
2023/04/25 07:39:47;;;;;;;15.95;2.90;;;10.40;90.80;;;;;;5072876;28;20048;-69
2023/04/25 07:42:13;;;;;;;16.00;2.53;;;10.30;90.70;;;;;;5073370;28;20040;-67
2023/04/25 07:44:39;;;;;;;13.65;2.90;;;10.40;91.00;;;;;;5073180;28;20035;-69
2023/04/25 07:47:09;;;;;;;13.40;2.58;;;10.60;90.60;;;;;;5073091;28;20107;-69
2023/04/25 07:49:36;;;;;;;14.27;3.28;;;10.60;90.10;;;;;;5073097;28;20295;-69
2023/04/25 07:52:04;;;;;;;16.27;2.85;;;10.80;90.20;;;;;;5072221;28;20492;-68
2023/04/25 07:54:30;;;;;;;12.43;2.83;;;10.70;90.10;;;;;;5072513;28;20037;-68
2023/04/25 07:56:55;;;;;;;22.98;2.80;;;11.00;89.60;;;;;;5072543;28;20427;-69
2023/04/25 07:59:21;;;;;;;9.07;2.13;;;10.70;89.20;;;;;;5072125;28;20040;-69
2023/04/25 08:01:47;;;;;;;14.88;2.30;;;10.70;89.30;;;;;;5072483;28;20028;-70
2023/04/25 08:04:13;;;;;;;16.13;4.55;;;11.00;89.40;;;;;;5071897;28;20032;-69
2023/04/25 08:06:40;;;;;;;8.85;1.95;;;11.20;88.90;;;;;;5071110;28;20040;-69
2023/04/25 08:09:06;;;;;;;11.55;2.50;;;10.90;87.30;;;;;;5072036;28;20045;-69
2023/04/25 08:11:31;;;;;;;15.18;2.65;;;10.90;87.30;;;;;;5072074;28;20422;-68
2023/04/25 08:13:57;;;;;;;18.15;3.55;;;10.80;87.50;;;;;;5072136;28;20362;-68
2023/04/25 08:16:23;;;;;;;9.63;1.83;;;11.30;87.20;;;;;;5072444;28;20043;-68
2023/04/25 08:18:50;;;;;;;7.03;1.70;;;11.60;85.80;;;;;;5072351;28;20032;-70
2023/04/25 08:21:16;;;;;;;10.38;2.00;;;12.00;84.50;;;;;;5073422;28;20033;-69
2023/04/25 08:23:42;;;;;;;14.98;2.05;;;13.20;84.60;;;;;;5072705;28;20020;-70
2023/04/25 08:26:07;;;;;;;5.88;1.55;;;13.80;78.30;;;;;;5071638;28;20103;-70
2023/04/25 08:28:33;;;;;;;11.00;2.08;;;14.70;81.10;;;;;;5072006;28;20024;-68
2023/04/25 08:30:59;;;;;;;10.60;1.40;;;15.60;77.80;;;;;;5088459;28;20063;-69
2023/04/25 08:33:25;;;;;;;9.35;2.35;;;15.50;75.60;;;;;;5072531;28;20045;-69
2023/04/25 08:35:51;;;;;;;9.05;2.00;;;16.20;71.70;;;;;;5073086;28;20116;-69
2023/04/25 08:38:18;;;;;;;9.75;2.20;;;16.50;71.50;;;;;;5071766;28;20132;-69
2023/04/25 08:40:44;;;;;;;12.95;2.28;;;16.70;69.10;;;;;;5071992;28;20056;-70
2023/04/25 08:43:14;;;;;;;13.60;2.25;;;16.10;67.60;;;;;;5071741;28;20037;-70
2023/04/25 08:45:41;;;;;;;10.63;2.08;;;16.30;67.00;;;;;;5071005;28;20032;-70
2023/04/25 08:48:15;;;;;;;8.25;1.85;;;15.60;67.10;;;;;;5071219;28;20032;-68
2023/04/25 08:50:52;;;;;;;9.90;2.15;;;15.50;67.20;;;;;;5071301;28;20029;-68
2023/04/25 08:53:29;;;;;;;11.97;2.97;;;14.10;66.90;;;;;;5087056;28;20101;-70
2023/04/25 08:55:57;;;;;;;14.70;2.35;;;13.60;69.10;;;;;;5071217;28;20304;-70
2023/04/25 08:58:23;;;;;;;6.15;1.48;;;13.30;69.60;;;;;;5071549;28;20358;-69
2023/04/25 09:00:50;;;;;;;11.15;2.30;;;13.40;70.20;;;;;;5070891;28;20033;-71
2023/04/25 09:03:17;;;;;;;12.75;1.77;;;13.10;71.30;;;;;;5070418;28;20029;-70
2023/04/25 09:05:43;;;;;;;10.73;1.75;;;13.20;71.70;;;;;;5070725;28;20025;-69
2023/04/25 09:08:10;;;;;;;5.82;1.52;;;12.90;72.20;;;;;;5070875;28;20071;-69
2023/04/25 09:10:36;;;;;;;7.05;1.85;;;12.70;72.10;;;;;;5071354;28;20458;-69
2023/04/25 09:13:14;;;;;;;9.60;1.75;;;12.50;73.10;;;;;;5071468;28;20127;-69
2023/04/25 09:15:51;;;;;;;6.35;1.50;;;13.00;72.80;;;;;;5088343;28;20059;-70
2023/04/25 09:18:31;;;;;;;8.10;2.92;;;13.60;70.90;;;;;;5088022;28;20021;-70
2023/04/25 09:21:11;;;;;;;10.52;2.45;;;14.50;66.60;;;;;;5070740;28;20064;-70
2023/04/25 09:23:47;;;;;;;7.53;1.45;;;15.50;63.70;;;;;;5071623;28;20079;-68
2023/04/25 09:26:17;;;;;;;4.65;1.30;;;15.90;62.80;;;;;;5071953;28;20025;-68
2023/04/25 09:28:43;;;;;;;6.10;1.27;;;16.80;60.70;;;;;;5072155;28;20108;-69
2023/04/25 09:31:20;;;;;;;10.20;1.52;;;18.40;59.10;;;;;;5070800;28;20427;-70
2023/04/25 09:33:46;;;;;;;4.97;1.10;;;19.20;55.00;;;;;;5070313;28;20482;-71
2023/04/25 09:36:13;;;;;;;6.18;1.75;;;18.60;53.80;;;;;;5070557;28;20041;-72
2023/04/25 09:38:44;;;;;;;6.45;1.38;;;19.10;52.90;;;;;;5070662;28;20090;-71
2023/04/25 09:41:10;;;;;;;6.22;1.00;;;19.90;52.50;;;;;;5071402;28;20066;-71
2023/04/25 09:43:36;;;;;;;3.45;1.10;;;20.00;50.50;;;;;;5071906;28;20501;-70
2023/04/25 09:46:02;;;;;;;10.43;1.40;;;19.40;49.60;;;;;;5071373;28;20040;-70
2023/04/25 09:48:29;;;;;;;5.57;1.08;;;19.10;49.80;;;;;;5071074;28;20390;-69
2023/04/25 09:51:15;;;;;;;9.93;1.30;;;19.90;48.10;;;;;;5070521;28;20041;-70
2023/04/25 09:53:43;;;;;;;8.80;1.55;;;19.80;47.00;;;;;;5070324;28;20075;-69
2023/04/25 09:56:11;;;;;;;3.88;1.08;;;19.40;48.20;;;;;;5070898;28;20465;-69
2023/04/25 09:58:38;;;;;;;7.20;1.88;;;20.00;48.30;;;;;;5071243;28;20033;-69
2023/04/25 10:01:09;;;;;;;6.57;1.52;;;19.90;46.70;;;;;;5070583;28;20115;-71
2023/04/25 10:03:37;;;;;;;5.45;1.38;;;19.20;46.00;;;;;;5070694;28;20056;-70
2023/04/25 10:06:06;;;;;;;;;;;18.40;47.50;;;;;;5070776;28;20028;-70
2023/04/25 10:08:36;;;;;;;;;;;17.90;48.50;;;;;;5070870;28;19955;-70
2023/04/25 10:11:02;;;;;;;;;;;19.70;49.90;;;;;;5070847;28;20223;-72
2023/04/25 10:13:29;;;;;;;;;;;19.00;47.90;;;;;;5071762;28;19915;-68
2023/04/25 10:15:55;;;;;;;;;;;18.30;48.30;;;;;;5091485;28;20448;-69
2023/04/25 10:18:21;;;;;;;;;;;17.70;48.90;;;;;;5075999;28;19916;-69
2023/04/25 10:20:46;;;;;;;;;;;16.70;50.00;;;;;;5075909;28;19979;-69
2023/04/25 10:23:13;;;;;;;;;;;15.90;50.80;;;;;;5075784;28;20332;-68
2023/04/25 10:25:40;;;;;;;;;;;16.10;51.70;;;;;;5075649;28;19904;-69
2023/04/25 10:28:06;;;;;;;;;;;16.00;51.90;;;;;;5075578;28;19912;-69
2023/04/25 10:30:31;;;;;;;;;;;15.90;52.40;;;;;;5075809;28;20456;-69
2023/04/25 10:32:58;;;;;;;;;;;15.20;53.20;;;;;;5075768;28;19935;-70
2023/04/25 10:35:25;;;;;;;;;;;15.00;53.50;;;;;;5076054;28;20158;-70
2023/04/25 10:38:00;;;;;;;;;;;14.70;54.30;;;;;;5075631;28;19912;-70
2023/04/25 10:40:26;;;;;;;;;;;14.40;55.10;;;;;;5076258;28;19992;-71
2023/04/25 10:42:53;;;;;;;;;;;13.40;56.10;;;;;;5074947;28;20002;-70
2023/04/25 10:45:19;;;;;;;;;;;13.90;56.70;;;;;;5074317;28;19919;-68
2023/04/25 10:47:45;;;;;;;;;;;14.00;55.90;;;;;;5073903;28;19912;-70
2023/04/25 10:50:11;;;;;;;;;;;13.60;57.00;;;;;;5073671;28;20228;-69
2023/04/25 10:52:38;;;;;;;;;;;13.60;56.50;;;;;;5074352;28;19912;-69
2023/04/25 10:55:04;;;;;;;;;;;13.80;56.60;;;;;;5073934;28;19920;-70
2023/04/25 10:57:30;;;;;;;;;;;13.90;57.20;;;;;;5073819;28;19912;-69
2023/04/25 11:00:10;;;;;;;;;;;13.70;57.80;;;;;;5072800;28;19916;-69
2023/04/25 11:02:46;;;;;;;;;;;13.50;58.20;;;;;;5074055;28;19920;-68
2023/04/25 11:05:21;;;;;;;;;;;13.40;57.60;;;;;;5072439;28;20103;-69
2023/04/25 11:07:57;;;;;;;;;;;13.10;57.30;;;;;;5075002;28;19904;-69
2023/04/25 11:10:29;;;;;;;;;;;13.20;57.80;;;;;;5074066;28;20266;-69
2023/04/25 11:12:55;;;;;;;;;;;13.30;57.90;;;;;;5073786;28;19916;-69
2023/04/25 11:15:21;;;;;;;;;;;13.50;57.60;;;;;;5074147;28;19949;-70
2023/04/25 11:17:46;;;;;;;;;;;13.60;56.50;;;;;;5074464;28;19999;-70
2023/04/25 11:20:13;;;;;;;;;;;13.60;54.50;;;;;;5074039;28;19931;-69
2023/04/25 11:22:42;;;;;;;;;;;13.90;54.50;;;;;;5074579;28;19904;-70
2023/04/25 11:25:09;;;;;;;;;;;13.90;53.50;;;;;;5073523;28;19915;-69
2023/04/25 11:27:49;;;;;;;;;;;13.90;54.10;;;;;;5073731;28;19912;-70
2023/04/25 11:30:15;;;;;;;;;;;14.00;55.30;;;;;;5073689;28;20364;-69
2023/04/25 11:32:42;;;;;;;;;;;13.70;56.40;;;;;;5073224;28;19985;-69
2023/04/25 11:35:09;;;;;;;;;;;13.50;57.00;;;;;;5089120;28;19909;-69
2023/04/25 11:37:34;;;;;;;;;;;13.40;57.80;;;;;;5074204;28;19944;-69
2023/04/25 11:40:00;;;;;;;;;;;13.10;59.00;;;;;;5073979;28;20275;-70
2023/04/25 11:42:26;;;;;;;;;;;12.90;61.90;;;;;;5074170;28;19995;-69
2023/04/25 11:44:52;;;;;;;;;;;12.50;68.60;;;;;;5072754;28;19981;-68
2023/04/25 11:47:17;;;;;;;;;;;12.40;71.40;;;;;;5073394;28;20342;-68
2023/04/25 11:49:43;;;;;;;;;;;12.30;75.70;;;;;;5073741;28;20303;-68
2023/04/25 11:52:09;;;;;;;;;;;12.30;77.50;;;;;;5073092;28;19916;-68
2023/04/25 11:54:35;;;;;;;;;;;11.90;78.20;;;;;;5072766;28;19908;-68
2023/04/25 11:57:01;;;;;;;;;;;12.00;78.30;;;;;;5072723;28;20007;-68
2023/04/25 11:59:27;;;;;;;;;;;12.30;79.10;;;;;;5072553;28;19998;-68
2023/04/25 12:01:52;;;;;;;;;;;12.50;79.70;;;;;;5073552;28;19916;-68
2023/04/25 12:04:19;;;;;;;;;;;11.80;78.80;;;;;;5072409;28;19905;-67
2023/04/25 12:06:48;;;;;;;;;;;11.90;80.20;;;;;;5072513;28;19990;-68
2023/04/25 12:09:15;;;;;;;;;;;12.00;78.50;;;;;;5072801;28;20335;-68
2023/04/25 12:11:42;;;;;;;;;;;12.10;79.20;;;;;;5071384;28;19966;-69
2023/04/25 12:14:08;;;;;;;;;;;12.40;79.80;;;;;;5071148;28;19909;-67
2023/04/25 12:16:41;;;;;;;;;;;12.50;75.90;;;;;;5072754;28;19911;-70
2023/04/25 12:19:07;;;;;;;;;;;12.50;73.30;;;;;;5071167;28;19999;-69
2023/04/25 12:21:32;;;;;;;;;;;12.70;70.70;;;;;;5072216;28;19908;-68
2023/04/25 12:24:14;;;;;;;;;;;12.50;65.90;;;;;;5071036;28;19908;-68
2023/04/25 12:26:48;;;;;;;;;;;12.60;64.20;;;;;;5072082;28;20281;-67
2023/04/25 12:29:21;;;;;;;;;;;12.50;64.10;;;;;;5071022;28;20274;-68
2023/04/25 12:31:47;;;;;;;;;;;12.60;63.50;;;;;;5071310;28;20146;-68
2023/04/25 12:34:12;;;;;;;;;;;12.90;63.40;;;;;;5072155;28;19935;-69
2023/04/25 12:36:39;;;;;;;;;;;12.70;62.20;;;;;;5070799;28;19909;-69
2023/04/25 12:39:04;;;;;;;;;;;12.80;63.00;;;;;;5071701;28;20339;-68
2023/04/25 12:41:30;;;;;;;;;;;12.90;62.60;;;;;;5073047;28;19966;-69
2023/04/25 12:43:56;;;;;;;;;;;12.80;64.40;;;;;;5073044;28;20234;-68
2023/04/25 12:46:22;;;;;;;;;;;12.80;64.40;;;;;;5073434;28;19967;-69
2023/04/25 12:48:48;;;;;;;;;;;12.80;64.10;;;;;;5073185;28;19908;-68
2023/04/25 12:51:14;;;;;;;;;;;12.40;64.90;;;;;;5072645;28;20033;-68
2023/04/25 12:53:40;;;;;;;;;;;12.20;64.20;;;;;;5071570;28;20261;-67
2023/04/25 12:56:07;;;;;;;;;;;12.30;63.90;;;;;;5071440;28;19908;-68
2023/04/25 12:58:33;;;;;;;;;;;12.30;63.80;;;;;;5072826;28;19931;-67
2023/04/25 13:00:59;;;;;;;;;;;12.30;62.40;;;;;;5070694;28;20391;-68